createdAt,value
2023-01-15T00:01:26.208Z,1.77
2023-01-15T00:03:54.684Z,1.50
2023-01-15T00:06:22.542Z,1.58
2023-01-15T00:08:50.186Z,1.77
2023-01-15T00:11:17.592Z,1.70
2023-01-15T00:13:44.733Z,2.05
2023-01-15T00:16:18.073Z,1.40
2023-01-15T00:18:52.227Z,2.40
2023-01-15T00:21:19.350Z,1.63
2023-01-15T00:23:46.190Z,1.63
2023-01-15T00:26:17.804Z,2.03
2023-01-15T00:28:44.615Z,1.60
2023-01-15T00:31:14.440Z,1.90
2023-01-15T00:33:41.505Z,2.00
2023-01-15T00:36:08.470Z,1.98
2023-01-15T00:38:35.269Z,1.80
2023-01-15T00:41:02.034Z,1.35
2023-01-15T00:43:28.850Z,1.48
2023-01-15T00:45:55.575Z,1.63
2023-01-15T00:48:22.316Z,1.55
2023-01-15T00:50:49.069Z,1.40
2023-01-15T00:53:15.933Z,1.40
2023-01-15T00:55:43.862Z,1.40
2023-01-15T00:58:10.624Z,1.20
2023-01-15T01:00:37.542Z,1.40
2023-01-15T01:03:07.002Z,1.30
2023-01-15T01:05:33.795Z,1.15
2023-01-15T01:08:00.602Z,1.10
2023-01-15T01:10:27.861Z,1.67
2023-01-15T01:12:54.644Z,1.35
2023-01-15T01:15:22.764Z,1.08
2023-01-15T01:17:49.651Z,1.10
2023-01-15T01:20:18.355Z,1.08
2023-01-15T01:22:48.373Z,1.20
2023-01-15T01:25:15.184Z,0.95
2023-01-15T01:27:45.414Z,0.70
2023-01-15T01:30:12.925Z,1.08
2023-01-15T01:32:39.933Z,1.20
2023-01-15T01:35:06.959Z,1.20
2023-01-15T01:37:33.652Z,1.25
2023-01-15T01:40:00.442Z,1.00
2023-01-15T01:42:27.225Z,1.30
2023-01-15T01:45:17.091Z,1.27
2023-01-15T01:47:44.563Z,1.33
2023-01-15T01:50:13.459Z,1.05
2023-01-15T01:52:48.738Z,1.20
2023-01-15T01:55:17.943Z,0.95
2023-01-15T01:57:46.879Z,0.95
2023-01-15T02:00:14.346Z,0.90
2023-01-15T02:02:44.112Z,0.98
2023-01-15T02:05:21.486Z,1.00
2023-01-15T02:07:48.247Z,1.00
2023-01-15T02:10:16.816Z,1.10
2023-01-15T02:12:49.465Z,1.08
2023-01-15T02:15:24.804Z,1.35
2023-01-15T02:18:30.134Z,1.10
2023-01-15T02:21:05.622Z,0.80
2023-01-15T02:24:03.666Z,1.10
2023-01-15T02:27:02.029Z,1.00
2023-01-15T02:29:44.559Z,1.08
2023-01-15T02:32:22.350Z,0.88
2023-01-15T02:34:54.650Z,0.90
2023-01-15T02:37:28.586Z,0.98
2023-01-15T02:39:58.217Z,1.42
2023-01-15T02:42:27.912Z,1.40
2023-01-15T02:44:58.586Z,1.50
2023-01-15T02:47:33.099Z,1.30
2023-01-15T02:50:05.299Z,1.55
2023-01-15T02:52:38.812Z,1.33
2023-01-15T02:55:18.142Z,1.40
2023-01-15T02:57:47.902Z,1.20
2023-01-15T03:00:17.431Z,1.50
2023-01-15T03:02:49.755Z,1.00
2023-01-15T03:05:26.260Z,1.10
2023-01-15T03:07:57.412Z,1.58
2023-01-15T03:10:57.199Z,1.65
2023-01-15T03:13:34.899Z,1.67
2023-01-15T03:16:04.024Z,1.35
2023-01-15T03:18:42.196Z,1.70
2023-01-15T03:21:13.619Z,1.48
2023-01-15T03:23:47.283Z,1.20
2023-01-15T03:26:14.141Z,1.20
2023-01-15T03:28:41.866Z,1.30
2023-01-15T03:31:08.896Z,1.10
2023-01-15T03:33:36.045Z,1.15
2023-01-15T03:36:02.953Z,1.27
2023-01-15T03:38:41.201Z,1.45
2023-01-15T03:41:35.433Z,1.30
2023-01-15T03:44:30.140Z,1.27
2023-01-15T03:47:16.795Z,1.35
2023-01-15T03:50:11.646Z,0.93
2023-01-15T03:53:00.100Z,0.80
2023-01-15T03:55:47.545Z,1.00
2023-01-15T03:58:20.668Z,0.95
2023-01-15T04:00:57.190Z,1.25
2023-01-15T04:03:26.174Z,0.80
2023-01-15T04:05:56.468Z,0.90
2023-01-15T04:08:26.552Z,0.90
2023-01-15T04:10:54.236Z,1.00
2023-01-15T04:13:21.585Z,1.13
2023-01-15T04:15:48.547Z,0.60
2023-01-15T04:18:15.220Z,0.63
2023-01-15T04:20:41.920Z,0.93
2023-01-15T04:23:08.890Z,0.70
2023-01-15T04:25:35.617Z,0.68
2023-01-15T04:28:02.300Z,0.70
2023-01-15T04:30:29.022Z,0.70
2023-01-15T04:32:55.735Z,0.90
2023-01-15T04:35:22.461Z,0.60
2023-01-15T04:37:49.228Z,0.60
2023-01-15T04:40:16.048Z,0.57
2023-01-15T04:42:42.708Z,0.43
2023-01-15T04:45:09.993Z,0.43
2023-01-15T04:47:36.647Z,0.50
2023-01-15T04:50:03.365Z,0.40
2023-01-15T04:52:30.050Z,0.60
2023-01-15T04:54:56.707Z,0.50
2023-01-15T04:57:23.716Z,0.60
2023-01-15T04:59:50.380Z,0.65
2023-01-15T05:02:17.244Z,0.60
2023-01-15T05:04:44.146Z,0.90
2023-01-15T05:07:10.936Z,0.68
2023-01-15T05:09:37.587Z,0.70
2023-01-15T05:12:04.603Z,0.75
2023-01-15T05:14:31.625Z,0.50
2023-01-15T05:16:58.304Z,0.57
2023-01-15T05:19:24.979Z,0.40
2023-01-15T05:21:51.717Z,0.60
2023-01-15T05:24:19.218Z,0.77
2023-01-15T05:26:45.899Z,0.50
2023-01-15T05:29:13.679Z,0.50
2023-01-15T05:31:41.089Z,0.65
2023-01-15T05:34:07.841Z,0.50
2023-01-15T05:36:34.599Z,0.57
2023-01-15T05:39:01.242Z,0.57
2023-01-15T05:41:28.568Z,0.55
2023-01-15T05:43:57.050Z,0.80
2023-01-15T05:46:23.818Z,0.50
2023-01-15T05:48:50.670Z,0.77
2023-01-15T05:51:17.440Z,0.68
2023-01-15T05:53:44.338Z,0.43
2023-01-15T05:56:11.583Z,0.55
2023-01-15T05:58:38.363Z,0.70
2023-01-15T06:01:09.936Z,0.60
2023-01-15T06:03:37.022Z,0.50
2023-01-15T06:06:04.433Z,0.63
2023-01-15T06:08:31.122Z,0.50
2023-01-15T06:10:57.807Z,0.70
2023-01-15T06:13:24.538Z,0.50
2023-01-15T06:15:51.195Z,0.60
2023-01-15T06:18:17.883Z,0.82
2023-01-15T06:20:44.640Z,0.60
2023-01-15T06:23:11.303Z,0.77
2023-01-15T06:25:38.007Z,0.60
2023-01-15T06:28:06.315Z,0.70
2023-01-15T06:30:34.039Z,0.70
2023-01-15T06:33:01.375Z,0.60
2023-01-15T06:35:28.098Z,0.50
2023-01-15T06:37:54.806Z,0.65
2023-01-15T06:40:21.739Z,0.90
2023-01-15T06:42:48.529Z,1.27
2023-01-15T06:45:15.291Z,0.80
2023-01-15T06:47:41.979Z,0.50
2023-01-15T06:50:09.726Z,0.73
2023-01-15T06:52:36.384Z,1.02
2023-01-15T06:55:03.083Z,0.85
2023-01-15T06:57:29.823Z,0.88
2023-01-15T06:59:56.540Z,0.85
2023-01-15T07:02:23.255Z,0.85
2023-01-15T07:04:50.831Z,0.85
2023-01-15T07:07:19.295Z,1.10
2023-01-15T07:09:46.057Z,1.10
2023-01-15T07:12:12.907Z,1.17
2023-01-15T07:14:39.842Z,1.10
2023-01-15T07:17:06.700Z,0.68
2023-01-15T07:19:33.452Z,1.20
2023-01-15T07:22:00.197Z,0.90
2023-01-15T07:24:26.978Z,1.20
2023-01-15T07:26:53.791Z,1.10
2023-01-15T07:29:20.547Z,0.93
2023-01-15T07:31:47.402Z,1.10
2023-01-15T07:34:14.208Z,1.10
2023-01-15T07:36:41.366Z,1.27
2023-01-15T07:39:09.645Z,1.17
2023-01-15T07:41:36.408Z,1.30
2023-01-15T07:44:03.225Z,1.40
2023-01-15T07:46:30.557Z,1.08
2023-01-15T07:48:57.231Z,1.00
2023-01-15T07:51:24.321Z,1.05
2023-01-15T07:53:51.073Z,1.30
2023-01-15T07:56:17.903Z,1.50
2023-01-15T07:58:44.764Z,1.40
2023-01-15T08:01:11.759Z,1.00
2023-01-15T08:03:38.674Z,1.45
2023-01-15T08:06:05.605Z,1.30
2023-01-15T08:08:32.297Z,3.70
2023-01-15T08:11:03.302Z,3.17
2023-01-15T08:13:30.388Z,2.10
2023-01-15T08:15:57.055Z,1.60
2023-01-15T08:18:23.716Z,1.33
2023-01-15T08:20:50.438Z,1.27
2023-01-15T08:23:17.129Z,1.38
2023-01-15T08:25:43.864Z,1.23
2023-01-15T08:28:11.976Z,1.30
2023-01-15T08:30:38.905Z,1.27
2023-01-15T08:33:05.970Z,1.42
2023-01-15T08:35:32.772Z,1.60
2023-01-15T08:37:59.445Z,1.70
2023-01-15T08:40:26.187Z,3.00
2023-01-15T08:42:56.443Z,5.40
2023-01-15T08:45:23.794Z,2.42
2023-01-15T08:47:54.211Z,2.85
2023-01-15T08:50:20.974Z,2.33
2023-01-15T08:52:47.713Z,2.30
2023-01-15T08:55:14.424Z,2.10
2023-01-15T08:57:41.077Z,2.28
2023-01-15T09:00:08.481Z,2.70
2023-01-15T09:02:35.167Z,3.22
2023-01-15T09:05:02.097Z,2.60
2023-01-15T09:07:28.870Z,2.58
2023-01-15T09:09:55.631Z,1.98
2023-01-15T09:12:22.327Z,1.90
2023-01-15T09:14:59.484Z,2.05
2023-01-15T09:17:30.568Z,2.25
2023-01-15T09:19:57.471Z,3.53
2023-01-15T09:22:24.233Z,3.90
2023-01-15T09:24:52.928Z,3.38
2023-01-15T09:27:19.703Z,3.10
2023-01-15T09:29:46.472Z,3.90
2023-01-15T09:32:13.208Z,2.47
2023-01-15T09:34:39.951Z,2.78
2023-01-15T09:37:06.676Z,2.70
2023-01-15T09:39:33.440Z,2.08
2023-01-15T09:42:29.120Z,1.70
2023-01-15T09:45:20.458Z,1.40
2023-01-15T09:47:52.908Z,1.60
2023-01-15T09:50:22.621Z,1.88
2023-01-15T09:53:13.659Z,1.10
2023-01-15T09:55:48.600Z,1.90
2023-01-15T09:58:19.803Z,2.30
2023-01-15T10:00:49.228Z,1.70
2023-01-15T10:03:42.722Z,1.20
2023-01-15T10:06:24.100Z,1.85
2023-01-15T10:08:52.640Z,1.60
2023-01-15T10:11:35.965Z,1.80
2023-01-15T10:14:11.133Z,1.17
2023-01-15T10:16:37.843Z,1.30
2023-01-15T10:19:04.556Z,1.83
2023-01-15T10:21:35.565Z,1.40
2023-01-15T10:24:12.302Z,1.42
2023-01-15T10:26:58.993Z,1.30
2023-01-15T10:29:45.204Z,1.50
2023-01-15T10:35:12.172Z,2.03
2023-01-15T10:38:19.936Z,1.80
2023-01-15T10:41:05.589Z,1.20
2023-01-15T10:43:41.920Z,1.33
2023-01-15T10:46:17.541Z,1.60
2023-01-15T10:48:52.945Z,1.73
2023-01-15T10:51:23.846Z,1.70
2023-01-15T10:53:53.678Z,1.88
2023-01-15T10:56:26.241Z,1.73
2023-01-15T10:58:57.189Z,1.70
2023-01-15T11:01:26.696Z,1.50
2023-01-15T11:03:54.384Z,2.35
2023-01-15T11:06:23.606Z,3.15
2023-01-15T11:09:11.666Z,1.50
2023-01-15T11:11:38.924Z,2.03
2023-01-15T11:14:05.618Z,1.40
2023-01-15T11:16:32.354Z,1.98
2023-01-15T11:19:02.911Z,1.67
2023-01-15T11:21:31.017Z,1.73
2023-01-15T11:24:00.120Z,1.60
2023-01-15T11:26:32.327Z,1.40
2023-01-15T11:29:11.768Z,1.77
2023-01-15T11:31:40.141Z,2.05
2023-01-15T11:34:20.866Z,1.67
2023-01-15T11:36:49.377Z,2.30
2023-01-15T11:39:27.209Z,2.17
2023-01-15T11:42:15.542Z,1.50
2023-01-15T11:44:51.368Z,1.50
2023-01-15T11:47:19.974Z,1.60
2023-01-15T11:49:51.107Z,1.40
2023-01-15T11:52:23.875Z,1.10
2023-01-15T11:54:54.784Z,1.65
2023-01-15T11:57:32.959Z,1.63
2023-01-15T11:59:59.735Z,1.60
2023-01-15T12:02:34.392Z,1.63
2023-01-15T12:05:03.411Z,1.42
2023-01-15T12:07:30.363Z,1.77
2023-01-15T12:10:16.412Z,1.75
2023-01-15T12:13:09.355Z,1.77
2023-01-15T12:16:08.450Z,2.00
2023-01-15T12:21:43.434Z,1.77
2023-01-15T12:24:32.065Z,1.50
2023-01-15T12:27:17.463Z,1.67
2023-01-15T12:29:49.788Z,1.60
2023-01-15T12:32:28.110Z,1.60
2023-01-15T12:35:26.831Z,1.90
2023-01-15T12:38:02.664Z,2.17
2023-01-15T12:40:42.210Z,1.40
2023-01-15T12:43:25.200Z,1.40
2023-01-15T12:45:54.853Z,6.13
2023-01-15T12:48:51.896Z,1.63
2023-01-15T12:51:26.093Z,1.92
2023-01-15T12:54:18.914Z,1.58
2023-01-15T12:57:16.856Z,1.60
2023-01-15T13:00:07.344Z,2.50
2023-01-15T13:02:55.369Z,1.60
2023-01-15T13:05:43.372Z,1.90
2023-01-15T13:08:34.798Z,3.33
2023-01-15T13:11:01.662Z,1.60
2023-01-15T13:13:36.995Z,2.30
2023-01-15T13:16:41.045Z,2.03
2023-01-15T13:19:32.269Z,1.58
2023-01-15T13:22:05.036Z,1.63
2023-01-15T13:24:46.632Z,1.58
2023-01-15T13:27:28.433Z,1.90
2023-01-15T13:30:19.943Z,1.27
2023-01-15T13:32:53.513Z,1.33
2023-01-15T13:35:36.133Z,1.40
2023-01-15T13:38:11.751Z,1.90
2023-01-15T13:40:45.222Z,1.75
2023-01-15T13:43:22.453Z,1.73
2023-01-15T13:45:50.673Z,1.77
2023-01-15T13:48:25.830Z,1.48
2023-01-15T13:51:03.566Z,1.83
2023-01-15T13:53:39.486Z,1.58
2023-01-15T13:56:11.750Z,1.70
2023-01-15T13:58:53.747Z,1.50
2023-01-15T14:01:47.234Z,1.90
2023-01-15T14:04:15.496Z,1.60
2023-01-15T14:06:43.484Z,2.30
2023-01-15T14:09:12.081Z,2.05
2023-01-15T14:11:48.548Z,1.65
2023-01-15T14:14:50.949Z,1.95
2023-01-15T14:17:40.748Z,2.20
2023-01-15T14:20:32.309Z,1.60
2023-01-15T14:23:11.126Z,1.70
2023-01-15T14:26:07.125Z,1.70
2023-01-15T14:28:58.393Z,1.70
2023-01-15T14:31:38.880Z,1.50
2023-01-15T14:34:11.309Z,1.70
2023-01-15T14:37:01.983Z,1.75
2023-01-15T14:39:39.876Z,1.80
2023-01-15T14:42:12.558Z,1.83
2023-01-15T14:44:41.464Z,1.77
2023-01-15T14:47:23.691Z,1.65
2023-01-15T14:50:04.315Z,1.60
2023-01-15T14:52:31.320Z,2.13
2023-01-15T14:54:59.816Z,2.10
2023-01-15T14:57:27.319Z,1.60
2023-01-15T15:00:00.212Z,2.00
2023-01-15T15:02:39.863Z,1.63
2023-01-15T15:05:14.754Z,1.95
2023-01-15T15:07:47.498Z,2.10
2023-01-15T15:10:17.160Z,2.20
2023-01-15T15:12:54.387Z,2.50
2023-01-15T15:15:27.245Z,2.30
2023-01-15T15:18:03.189Z,2.00
2023-01-15T15:20:51.747Z,2.03
2023-01-15T15:23:55.224Z,1.80
2023-01-15T15:26:32.095Z,1.80
2023-01-15T15:29:09.257Z,1.38
2023-01-15T15:31:48.240Z,2.10
2023-01-15T15:34:31.222Z,1.90
2023-01-15T15:37:04.468Z,2.38
2023-01-15T15:40:01.755Z,2.05
2023-01-15T15:42:39.640Z,2.03
2023-01-15T15:45:18.533Z,2.47
2023-01-15T15:47:45.236Z,2.20
2023-01-15T15:50:22.575Z,2.00
2023-01-15T15:52:50.800Z,1.40
2023-01-15T15:55:19.380Z,2.90
2023-01-15T15:57:59.803Z,2.17
2023-01-15T16:00:40.514Z,2.15
2023-01-15T16:03:46.178Z,2.42
2023-01-15T16:06:24.136Z,2.08
2023-01-15T16:08:55.710Z,2.30
2023-01-15T16:11:25.596Z,2.10
2023-01-15T16:13:54.608Z,1.90
2023-01-15T16:16:21.768Z,1.88
2023-01-15T16:18:52.266Z,1.77
2023-01-15T16:21:41.244Z,2.38
2023-01-15T16:24:21.308Z,1.60
2023-01-15T16:27:08.989Z,2.50
2023-01-15T16:29:36.036Z,2.33
2023-01-15T16:32:13.662Z,1.75
2023-01-15T16:34:41.183Z,2.17
2023-01-15T16:37:29.762Z,2.58
2023-01-15T16:39:59.497Z,2.40
2023-01-15T16:42:46.479Z,2.72
2023-01-15T16:45:23.627Z,2.60
2023-01-15T16:48:08.335Z,1.92
2023-01-15T16:50:37.018Z,2.08
2023-01-15T16:53:05.511Z,2.53
2023-01-15T16:55:41.928Z,2.00
2023-01-15T16:58:14.749Z,2.35
2023-01-15T17:00:47.634Z,1.85
2023-01-15T17:03:23.319Z,2.03
2023-01-15T17:08:27.524Z,1.83
2023-01-15T17:11:00.185Z,2.20
2023-01-15T17:13:35.768Z,2.05
2023-01-15T17:16:06.588Z,2.40
2023-01-15T17:18:33.715Z,1.52
2023-01-15T17:21:01.189Z,1.73
2023-01-15T17:23:30.030Z,1.80
2023-01-15T17:25:56.972Z,2.10
2023-01-15T17:28:23.767Z,2.47
2023-01-15T17:30:52.262Z,1.60
2023-01-15T17:33:19.873Z,2.10
2023-01-15T17:35:46.578Z,2.13
2023-01-15T17:38:13.277Z,1.75
2023-01-15T17:40:40.489Z,2.20
2023-01-15T17:43:07.353Z,1.80
2023-01-15T17:45:34.464Z,2.40
2023-01-15T17:48:01.161Z,2.53
2023-01-15T17:50:27.912Z,1.98
2023-01-15T17:52:54.679Z,2.80
2023-01-15T17:55:23.337Z,2.22
2023-01-15T17:57:50.128Z,2.83
2023-01-15T18:00:17.411Z,2.20
2023-01-15T18:02:44.300Z,2.03
2023-01-15T18:05:12.987Z,2.00
2023-01-15T18:07:43.169Z,2.08
2023-01-15T18:10:12.950Z,1.95
2023-01-15T18:12:39.670Z,1.60
2023-01-15T18:15:07.156Z,1.45
2023-01-15T18:17:33.841Z,1.98
2023-01-15T18:20:00.573Z,2.22
2023-01-15T18:22:27.324Z,4.45
2023-01-15T18:24:54.007Z,3.28
2023-01-15T18:27:21.506Z,2.40
2023-01-15T18:29:48.319Z,2.03
2023-01-15T18:32:15.355Z,2.88
2023-01-15T18:34:42.085Z,2.33
2023-01-15T18:37:08.854Z,1.90
2023-01-15T18:39:35.864Z,3.00
2023-01-15T18:42:02.606Z,2.42
2023-01-15T18:44:29.625Z,2.75
2023-01-15T18:46:58.821Z,1.98
2023-01-15T18:49:25.533Z,2.30
2023-01-15T18:51:52.355Z,2.50
2023-01-15T18:54:19.100Z,2.45
2023-01-15T18:56:46.097Z,1.92
2023-01-15T18:59:14.349Z,2.60
2023-01-15T19:01:42.171Z,1.92
2023-01-15T19:04:09.491Z,2.42
2023-01-15T19:06:37.526Z,1.90
2023-01-15T19:09:05.394Z,1.75
2023-01-15T19:11:32.407Z,2.08
2023-01-15T19:13:59.160Z,2.03
2023-01-15T19:16:25.983Z,1.90
2023-01-15T19:18:52.798Z,1.77
2023-01-15T19:21:21.054Z,2.38
2023-01-15T19:23:48.092Z,2.55
2023-01-15T19:26:15.328Z,2.30
2023-01-15T19:28:42.081Z,2.38
2023-01-15T19:31:09.872Z,2.13
2023-01-15T19:33:36.991Z,2.40
2023-01-15T19:36:04.602Z,2.28
2023-01-15T19:38:31.510Z,1.92
2023-01-15T19:40:58.240Z,2.53
2023-01-15T19:43:24.908Z,2.20
2023-01-15T19:45:52.058Z,2.42
2023-01-15T19:48:20.025Z,2.30
2023-01-15T19:50:47.177Z,2.08
2023-01-15T19:53:14.532Z,2.28
2023-01-15T19:55:44.356Z,2.10
2023-01-15T19:58:13.409Z,2.30
2023-01-15T20:00:42.042Z,1.77
2023-01-15T20:03:10.320Z,1.75
2023-01-15T20:05:40.770Z,2.10
2023-01-15T20:08:07.824Z,2.03
2023-01-15T20:10:34.688Z,1.80
2023-01-15T20:13:01.400Z,1.95
2023-01-15T20:15:29.480Z,2.10
2023-01-15T20:17:57.588Z,2.10
2023-01-15T20:20:25.812Z,2.08
2023-01-15T20:22:52.489Z,1.95
2023-01-15T20:25:19.153Z,1.90
2023-01-15T20:27:45.862Z,2.20
2023-01-15T20:30:15.043Z,2.20
2023-01-15T20:32:43.735Z,2.38
2023-01-15T20:35:16.529Z,3.00
2023-01-15T20:37:43.324Z,1.90
2023-01-15T20:40:10.688Z,2.00
2023-01-15T20:42:37.411Z,1.98
2023-01-15T20:45:04.463Z,1.85
2023-01-15T20:47:31.620Z,2.30
2023-01-15T20:50:01.009Z,2.20
2023-01-15T20:52:27.666Z,1.80
2023-01-15T20:54:54.297Z,2.20
2023-01-15T20:57:21.057Z,2.38
2023-01-15T20:59:47.721Z,2.35
2023-01-15T21:02:14.436Z,2.08
2023-01-15T21:04:41.173Z,2.00
2023-01-15T21:07:07.890Z,1.80
2023-01-15T21:09:34.636Z,2.08
2023-01-15T21:12:01.582Z,2.10
2023-01-15T21:14:28.263Z,1.38
2023-01-15T21:16:55.023Z,2.00
2023-01-15T21:19:24.440Z,2.40
2023-01-15T21:21:51.241Z,1.83
2023-01-15T21:24:17.947Z,2.22
2023-01-15T21:26:44.760Z,1.92
2023-01-15T21:29:11.535Z,2.33
2023-01-15T21:31:42.151Z,1.85
2023-01-15T21:34:12.002Z,1.95
2023-01-15T21:36:38.861Z,2.05
2023-01-15T21:39:05.590Z,2.17
2023-01-15T21:41:32.355Z,1.60
2023-01-15T21:43:59.126Z,2.03
2023-01-15T21:46:28.926Z,1.88
2023-01-15T21:48:57.339Z,1.40
2023-01-15T21:51:25.859Z,2.30
2023-01-15T21:53:52.610Z,2.28
2023-01-15T21:56:19.472Z,1.88
2023-01-15T21:58:49.241Z,1.95
2023-01-15T22:01:18.974Z,1.95
2023-01-15T22:03:45.678Z,1.65
2023-01-15T22:06:12.440Z,1.50
2023-01-15T22:08:39.575Z,2.17
2023-01-15T22:11:08.728Z,2.03
2023-01-15T22:13:46.145Z,1.85
2023-01-15T22:16:21.623Z,1.55
2023-01-15T22:18:50.764Z,2.00
2023-01-15T22:21:19.756Z,1.80
2023-01-15T22:23:48.846Z,1.67
2023-01-15T22:26:22.452Z,1.85
2023-01-15T22:28:54.583Z,1.77
2023-01-15T22:31:21.341Z,2.00
2023-01-15T22:33:58.221Z,1.40
2023-01-15T22:36:26.568Z,2.40
2023-01-15T22:38:57.864Z,1.50
2023-01-15T22:41:27.295Z,1.70
2023-01-15T22:43:55.879Z,1.35
2023-01-15T22:46:35.785Z,1.38
2023-01-15T22:49:04.145Z,1.75
2023-01-15T22:51:34.281Z,1.40
2023-01-15T22:54:01.020Z,1.40
2023-01-15T22:56:27.739Z,1.63
2023-01-15T22:58:55.867Z,1.98
2023-01-15T23:01:23.927Z,2.17
2023-01-15T23:03:50.991Z,2.00
2023-01-15T23:06:17.897Z,1.77
2023-01-15T23:08:45.105Z,1.60
2023-01-15T23:11:14.796Z,1.55
2023-01-15T23:13:51.437Z,1.75
2023-01-15T23:16:18.761Z,1.98
2023-01-15T23:18:45.541Z,1.70
2023-01-15T23:21:14.990Z,1.90
2023-01-15T23:23:41.890Z,1.52
2023-01-15T23:26:17.173Z,1.45
2023-01-15T23:28:44.513Z,1.50
2023-01-15T23:31:11.421Z,2.00
2023-01-15T23:33:38.220Z,1.30
2023-01-15T23:36:05.544Z,2.00
2023-01-15T23:38:32.271Z,1.70
2023-01-15T23:40:59.017Z,1.77
2023-01-15T23:43:25.995Z,1.60
2023-01-15T23:45:52.771Z,1.63
2023-01-15T23:48:19.517Z,1.52
2023-01-15T23:50:46.330Z,1.58
2023-01-15T23:53:13.098Z,1.80
2023-01-15T23:55:39.868Z,1.58
2023-01-15T23:58:06.585Z,1.45
